createdAt,value
2019-05-12T00:02:04.502Z,150.38
2019-05-12T00:04:31.535Z,150.05
2019-05-12T00:06:58.703Z,150.32
2019-05-12T00:09:28.211Z,148.93
2019-05-12T00:11:59.033Z,149.62
2019-05-12T00:14:28.140Z,149.65
2019-05-12T00:16:55.414Z,149.97
2019-05-12T00:19:22.475Z,148.78
2019-05-12T00:21:49.667Z,149.23
2019-05-12T00:24:18.739Z,150.95
2019-05-12T00:26:47.601Z,150.60
2019-05-12T00:29:14.642Z,151.02
2019-05-12T00:31:42.230Z,150.72
2019-05-12T00:34:09.302Z,153.45
2019-05-12T00:36:37.966Z,151.93
2019-05-12T00:39:08.555Z,152.38
2019-05-12T00:41:35.542Z,152.45
2019-05-12T00:44:02.614Z,153.68
2019-05-12T00:46:29.702Z,153.10
2019-05-12T00:48:58.543Z,153.62
2019-05-12T00:51:25.670Z,153.32
2019-05-12T00:53:52.720Z,152.87
2019-05-12T00:56:19.780Z,151.25
2019-05-12T00:58:48.777Z,151.47
2019-05-12T01:01:18.265Z,151.27
2019-05-12T01:03:44.817Z,151.32
2019-05-12T01:06:11.855Z,150.40
2019-05-12T01:08:40.403Z,150.27
2019-05-12T01:11:08.785Z,152.12
2019-05-12T01:13:38.116Z,150.53
2019-05-12T01:16:05.095Z,152.00
2019-05-12T01:18:32.349Z,150.42
2019-05-12T01:20:59.591Z,150.20
2019-05-12T01:23:28.089Z,161.37
2019-05-12T01:25:58.286Z,159.78
2019-05-12T01:28:27.817Z,150.15
2019-05-12T01:30:58.217Z,149.87
2019-05-12T01:33:27.522Z,148.55
2019-05-12T01:35:54.289Z,149.32
2019-05-12T01:38:21.349Z,148.87
2019-05-12T01:40:48.402Z,147.43
2019-05-12T01:43:15.543Z,147.55
2019-05-12T01:45:42.596Z,148.75
2019-05-12T01:48:09.653Z,149.27
2019-05-12T01:50:38.659Z,148.15
2019-05-12T01:53:08.178Z,152.10
2019-05-12T01:55:34.876Z,146.22
2019-05-12T01:58:01.954Z,146.30
2019-05-12T02:00:29.330Z,148.35
2019-05-12T02:02:58.588Z,145.35
2019-05-12T02:05:27.958Z,148.87
2019-05-12T02:07:58.449Z,144.35
2019-05-12T02:10:25.193Z,144.87
2019-05-12T02:12:52.258Z,147.30
2019-05-12T02:15:19.894Z,144.97
2019-05-12T02:17:48.191Z,145.05
2019-05-12T02:20:18.042Z,145.22
2019-05-12T02:22:47.586Z,144.25
2019-05-12T02:25:14.928Z,145.47
2019-05-12T02:27:41.967Z,145.12
2019-05-12T02:30:10.247Z,145.55
2019-05-12T02:32:48.713Z,145.40
2019-05-12T02:35:07.352Z,145.72
2019-05-12T02:37:35.708Z,144.85
2019-05-12T02:40:05.303Z,146.35
2019-05-12T02:42:34.894Z,145.72
2019-05-12T02:45:05.243Z,145.85
2019-05-12T02:47:30.737Z,146.93
2019-05-12T02:49:59.283Z,152.50
2019-05-12T02:52:26.303Z,149.57
2019-05-12T02:54:59.785Z,146.70
2019-05-12T02:57:25.555Z,148.07
2019-05-12T02:59:56.736Z,145.50
2019-05-12T03:02:26.306Z,147.28
2019-05-12T03:04:54.997Z,146.70
2019-05-12T03:07:25.621Z,145.77
2019-05-12T03:09:55.101Z,145.53
2019-05-12T03:12:25.285Z,146.25
2019-05-12T03:14:54.260Z,146.62
2019-05-12T03:17:20.281Z,146.70
2019-05-12T03:19:47.315Z,148.40
2019-05-12T03:22:14.364Z,145.82
2019-05-12T03:24:44.704Z,146.95
2019-05-12T03:27:17.207Z,149.85
2019-05-12T03:29:40.483Z,147.43
2019-05-12T03:32:08.749Z,146.37
2019-05-12T03:34:38.274Z,146.85
2019-05-12T03:37:07.830Z,146.37
2019-05-12T03:39:36.061Z,146.85
2019-05-12T03:42:05.180Z,146.77
2019-05-12T03:44:35.023Z,148.55
2019-05-12T03:47:01.121Z,148.50
2019-05-12T03:49:28.118Z,147.82
2019-05-12T03:51:55.176Z,148.55
2019-05-12T03:54:24.345Z,147.45
2019-05-12T03:56:51.229Z,147.20
2019-05-12T03:59:18.270Z,151.25
2019-05-12T04:01:45.512Z,151.35
2019-05-12T04:04:15.330Z,149.38
2019-05-12T04:06:45.294Z,150.72
2019-05-12T04:09:15.454Z,147.15
2019-05-12T04:11:44.531Z,148.93
2019-05-12T04:14:14.609Z,148.75
2019-05-12T04:16:41.200Z,148.05
2019-05-12T04:19:08.223Z,151.05
2019-05-12T04:21:35.660Z,153.45
2019-05-12T04:24:05.502Z,149.30
2019-05-12T04:26:35.801Z,148.53
2019-05-12T04:29:00.846Z,149.12
2019-05-12T04:31:27.879Z,149.30
2019-05-12T04:33:55.722Z,149.15
2019-05-12T04:36:24.863Z,151.20
2019-05-12T04:38:55.266Z,150.12
2019-05-12T04:41:20.650Z,152.05
2019-05-12T04:43:48.684Z,150.75
2019-05-12T04:46:15.733Z,151.07
2019-05-12T04:48:45.324Z,151.00
2019-05-12T04:51:15.367Z,154.25
2019-05-12T04:53:44.852Z,151.53
2019-05-12T04:56:19.239Z,153.68
2019-05-12T04:58:45.020Z,152.82
2019-05-12T05:01:15.462Z,152.40
2019-05-12T05:03:45.465Z,153.00
2019-05-12T05:06:14.920Z,150.90
2019-05-12T05:08:44.293Z,151.78
2019-05-12T05:11:14.559Z,152.55
2019-05-12T05:13:40.741Z,151.45
2019-05-12T05:16:07.796Z,152.60
2019-05-12T05:18:34.865Z,152.53
2019-05-12T05:21:04.661Z,153.57
2019-05-12T05:23:33.491Z,152.75
2019-05-12T05:26:03.267Z,151.63
2019-05-12T05:28:33.979Z,152.68
2019-05-12T05:31:03.490Z,151.35
2019-05-12T05:33:30.742Z,151.50
2019-05-12T05:35:57.778Z,150.42
2019-05-12T05:38:24.935Z,150.78
2019-05-12T05:40:53.990Z,150.62
2019-05-12T05:43:24.173Z,150.30
2019-05-12T05:45:54.537Z,149.87
2019-05-12T05:48:20.343Z,149.85
2019-05-12T05:50:47.384Z,152.00
2019-05-12T05:53:19.561Z,150.32
2019-05-12T05:55:44.222Z,151.42
2019-05-12T05:58:15.421Z,151.57
2019-05-12T06:00:43.468Z,149.85
2019-05-12T06:03:17.009Z,150.65
2019-05-12T06:05:39.591Z,149.50
2019-05-12T06:08:09.624Z,149.40
2019-05-12T06:10:40.523Z,150.25
2019-05-12T06:13:07.711Z,149.65
2019-05-12T06:15:40.704Z,150.15
2019-05-12T06:18:08.396Z,149.42
2019-05-12T06:20:38.050Z,148.53
2019-05-12T06:23:05.700Z,150.68
2019-05-12T06:25:46.030Z,148.62
2019-05-12T06:28:08.874Z,148.25
2019-05-12T06:30:44.317Z,148.50
2019-05-12T06:33:06.738Z,149.20
2019-05-12T06:35:42.125Z,150.75
2019-05-12T06:38:08.293Z,147.62
2019-05-12T06:40:41.022Z,148.02
2019-05-12T06:43:04.945Z,148.02
2019-05-12T06:45:34.008Z,146.98
2019-05-12T06:48:03.255Z,147.95
2019-05-12T06:50:36.975Z,148.55
2019-05-12T06:53:05.254Z,147.30
2019-05-12T06:55:34.437Z,148.13
2019-05-12T06:58:04.462Z,146.20
2019-05-12T07:00:32.652Z,147.43
2019-05-12T07:03:03.932Z,147.37
2019-05-12T07:05:40.807Z,147.22
2019-05-12T07:08:08.988Z,146.53
2019-05-12T07:10:43.403Z,147.98
2019-05-12T07:13:08.747Z,147.72
2019-05-12T07:15:40.561Z,146.30
2019-05-12T07:18:13.713Z,145.25
2019-05-12T07:20:43.587Z,147.15
2019-05-12T07:23:10.775Z,147.53
2019-05-12T07:25:37.868Z,145.57
2019-05-12T07:28:07.926Z,148.68
2019-05-12T07:30:36.137Z,146.72
2019-05-12T07:33:04.876Z,147.82
2019-05-12T07:35:33.949Z,147.35
2019-05-12T07:38:04.275Z,148.82
2019-05-12T07:40:38.919Z,148.57
2019-05-12T07:43:16.361Z,148.95
2019-05-12T07:45:56.567Z,147.25
2019-05-12T07:48:18.012Z,151.00
2019-05-12T07:50:50.307Z,150.03
2019-05-12T07:53:17.884Z,149.25
2019-05-12T07:56:03.960Z,149.85
2019-05-12T07:58:33.620Z,152.07
2019-05-12T08:01:02.949Z,149.85
2019-05-12T08:03:30.800Z,151.15
2019-05-12T08:06:04.484Z,148.38
2019-05-12T08:08:35.643Z,147.75
2019-05-12T08:11:04.377Z,148.25
2019-05-12T08:13:56.933Z,149.27
2019-05-12T08:16:38.577Z,149.70
2019-05-12T08:19:08.547Z,148.78
2019-05-12T08:21:43.555Z,148.40
2019-05-12T08:24:04.870Z,150.25
2019-05-12T08:26:34.921Z,150.87
2019-05-12T08:29:04.472Z,150.25
2019-05-12T08:31:38.512Z,151.18
2019-05-12T08:34:01.015Z,149.90
2019-05-12T08:36:30.792Z,151.53
2019-05-12T08:38:57.948Z,149.32
2019-05-12T08:41:25.546Z,148.95
2019-05-12T08:43:58.142Z,150.90
2019-05-12T08:46:24.295Z,151.30
2019-05-12T08:48:57.977Z,151.55
2019-05-12T08:51:20.731Z,153.18
2019-05-12T08:53:47.833Z,151.00
2019-05-12T08:56:19.363Z,150.60
2019-05-12T08:58:50.928Z,153.23
2019-05-12T09:01:14.396Z,152.25
2019-05-12T09:03:44.269Z,152.53
2019-05-12T09:06:15.510Z,153.65
2019-05-12T09:08:44.891Z,152.32
2019-05-12T09:11:14.400Z,151.12
2019-05-12T09:13:44.064Z,150.87
2019-05-12T09:16:19.293Z,150.85
2019-05-12T09:18:46.476Z,149.68
2019-05-12T09:21:14.226Z,151.87
2019-05-12T09:23:44.980Z,152.65
2019-05-12T09:26:10.745Z,153.27
2019-05-12T09:28:49.250Z,152.17
2019-05-12T09:31:14.136Z,150.87
2019-05-12T09:33:44.679Z,151.65
2019-05-12T09:36:19.792Z,152.07
2019-05-12T09:38:41.151Z,155.63
2019-05-12T09:41:08.363Z,155.48
2019-05-12T09:43:40.135Z,151.75
2019-05-12T09:46:04.628Z,154.47
2019-05-12T09:48:52.079Z,155.22
2019-05-12T09:51:40.671Z,153.68
2019-05-12T09:54:02.205Z,154.65
2019-05-12T09:56:29.496Z,152.05
2019-05-12T09:59:01.571Z,151.37
2019-05-12T10:01:29.413Z,152.72
2019-05-12T10:04:03.304Z,153.05
2019-05-12T10:06:41.297Z,151.12
2019-05-12T10:09:19.823Z,156.25
2019-05-12T10:11:44.855Z,154.55
2019-05-12T10:14:15.098Z,154.25
2019-05-12T10:16:45.671Z,154.35
2019-05-12T10:19:14.416Z,151.85
2019-05-12T10:21:43.852Z,152.05
2019-05-12T10:24:10.886Z,153.57
2019-05-12T10:26:41.190Z,154.18
2019-05-12T10:29:17.520Z,152.53
2019-05-12T10:31:39.403Z,156.52
2019-05-12T10:34:20.504Z,154.65
2019-05-12T10:36:54.169Z,152.35
2019-05-12T10:39:21.316Z,154.32
2019-05-12T10:41:48.606Z,152.90
2019-05-12T10:44:15.799Z,152.00
2019-05-12T10:46:43.864Z,171.50
2019-05-12T10:49:13.937Z,152.93
2019-05-12T10:51:43.623Z,155.20
2019-05-12T10:54:13.146Z,153.80
2019-05-12T10:56:39.219Z,153.27
2019-05-12T10:59:06.439Z,155.90
2019-05-12T11:01:38.367Z,156.65
2019-05-12T11:04:03.934Z,155.05
2019-05-12T11:06:31.173Z,154.95
2019-05-12T11:08:58.277Z,155.43
2019-05-12T11:11:33.020Z,155.32
2019-05-12T11:13:56.884Z,156.82
2019-05-12T11:16:31.137Z,156.02
2019-05-12T11:18:54.226Z,154.80
2019-05-12T11:21:22.465Z,154.53
2019-05-12T11:23:50.743Z,164.97
2019-05-12T11:26:18.804Z,154.55
2019-05-12T11:28:45.878Z,154.72
2019-05-12T11:31:13.633Z,154.65
2019-05-12T11:33:40.892Z,158.80
2019-05-12T11:36:08.287Z,157.25
2019-05-12T11:38:38.611Z,155.43
2019-05-12T11:41:10.174Z,154.05
2019-05-12T11:43:34.618Z,154.12
2019-05-12T11:46:01.994Z,155.65
2019-05-12T11:48:29.091Z,158.18
2019-05-12T11:50:56.125Z,156.30
2019-05-12T11:53:30.247Z,159.03
2019-05-12T11:55:54.322Z,156.67
2019-05-12T11:58:23.453Z,155.97
2019-05-12T12:00:53.346Z,157.27
2019-05-12T12:03:20.558Z,154.72
2019-05-12T12:05:47.639Z,156.43
2019-05-12T12:08:14.745Z,162.03
2019-05-12T12:10:42.120Z,158.57
2019-05-12T12:13:09.292Z,158.42
2019-05-12T12:15:36.490Z,156.07
2019-05-12T12:18:12.967Z,157.27
2019-05-12T12:20:36.595Z,156.63
2019-05-12T12:23:11.097Z,157.00
2019-05-12T12:25:34.214Z,157.37
2019-05-12T12:28:01.597Z,155.03
2019-05-12T12:30:28.742Z,157.15
2019-05-12T12:33:00.285Z,165.70
2019-05-12T12:35:26.857Z,158.22
2019-05-12T12:37:54.241Z,157.78
2019-05-12T12:40:23.091Z,158.60
2019-05-12T12:42:50.155Z,156.90
2019-05-12T12:45:30.463Z,157.85
2019-05-12T12:47:58.134Z,156.40
2019-05-12T12:50:28.555Z,155.12
2019-05-12T12:52:54.208Z,157.30
2019-05-12T12:55:23.319Z,159.18
2019-05-12T12:57:50.842Z,158.85
2019-05-12T13:00:29.873Z,159.82
2019-05-12T13:03:00.138Z,159.22
2019-05-12T13:05:34.553Z,157.00
2019-05-12T13:08:04.089Z,158.65
2019-05-12T13:10:30.734Z,158.95
2019-05-12T13:13:01.122Z,157.20
2019-05-12T13:15:28.390Z,159.15
2019-05-12T13:17:55.468Z,160.03
2019-05-12T13:20:24.331Z,157.47
2019-05-12T13:22:53.516Z,159.20
2019-05-12T13:25:26.349Z,159.20
2019-05-12T13:27:53.551Z,160.97
2019-05-12T13:30:24.340Z,162.37
2019-05-12T13:32:51.519Z,166.92
2019-05-12T13:35:20.169Z,160.70
2019-05-12T13:37:58.440Z,158.32
2019-05-12T13:41:23.223Z,157.62
2019-05-12T13:44:20.786Z,155.78
2019-05-12T13:46:54.725Z,155.20
2019-05-12T13:49:20.591Z,157.93
2019-05-12T13:51:48.862Z,159.67
2019-05-12T13:54:20.170Z,159.97
2019-05-12T13:56:45.818Z,159.78
2019-05-12T13:59:20.760Z,160.60
2019-05-12T14:01:46.847Z,161.52
2019-05-12T14:04:22.164Z,159.52
2019-05-12T14:06:48.708Z,159.00
2019-05-12T14:09:16.106Z,159.90
2019-05-12T14:11:43.669Z,159.18
2019-05-12T14:14:15.401Z,160.05
2019-05-12T14:16:44.679Z,160.52
2019-05-12T14:19:11.521Z,159.43
2019-05-12T14:21:41.528Z,159.97
2019-05-12T14:24:13.726Z,159.70
2019-05-12T14:26:47.582Z,157.72
2019-05-12T14:29:10.327Z,159.82
2019-05-12T14:31:45.402Z,160.72
2019-05-12T14:34:10.401Z,164.28
2019-05-12T14:36:37.686Z,160.22
2019-05-12T14:39:10.289Z,161.88
2019-05-12T14:41:44.487Z,162.43
2019-05-12T14:44:13.749Z,160.67
2019-05-12T14:46:46.250Z,157.70
2019-05-12T14:49:14.025Z,160.30
2019-05-12T14:51:41.136Z,158.75
2019-05-12T14:54:08.632Z,157.75
2019-05-12T14:56:53.029Z,157.45
2019-05-12T14:59:16.086Z,156.63
2019-05-12T15:01:57.441Z,158.15
2019-05-12T15:04:27.982Z,159.10
2019-05-12T15:06:50.375Z,159.80
2019-05-12T15:09:21.791Z,158.68
2019-05-12T15:11:47.852Z,158.18
2019-05-12T15:14:14.916Z,158.52
2019-05-12T15:16:44.691Z,160.00
2019-05-12T15:19:14.619Z,158.90
2019-05-12T15:21:43.680Z,158.57
2019-05-12T15:24:15.449Z,158.75
2019-05-12T15:26:43.540Z,156.60
2019-05-12T15:29:13.287Z,156.63
2019-05-12T15:31:52.761Z,160.00
2019-05-12T15:34:14.402Z,157.52
2019-05-12T15:36:43.682Z,159.97
2019-05-12T15:39:10.852Z,158.12
2019-05-12T15:41:38.073Z,156.57
2019-05-12T15:44:06.615Z,154.35
2019-05-12T15:46:41.016Z,155.57
2019-05-12T15:49:03.674Z,156.32
2019-05-12T15:51:35.066Z,157.12
2019-05-12T15:54:06.576Z,156.85
2019-05-12T15:56:32.314Z,157.47
2019-05-12T15:59:01.113Z,155.75
2019-05-12T16:01:35.941Z,158.90
2019-05-12T16:04:03.772Z,157.80
2019-05-12T16:06:31.179Z,156.97
2019-05-12T16:08:58.517Z,156.67
2019-05-12T16:11:25.972Z,155.63
2019-05-12T16:14:03.848Z,155.65
2019-05-12T16:16:36.408Z,156.75
2019-05-12T16:19:01.272Z,156.32
2019-05-12T16:21:28.882Z,158.30
2019-05-12T16:24:04.886Z,159.67
2019-05-12T16:26:33.540Z,159.55
2019-05-12T16:29:05.862Z,157.00
2019-05-12T16:31:33.932Z,158.15
2019-05-12T16:34:05.903Z,158.40
2019-05-12T16:36:33.607Z,157.75
2019-05-12T16:39:07.661Z,156.32
2019-05-12T16:41:34.876Z,155.00
2019-05-12T16:44:07.848Z,155.45
2019-05-12T16:46:31.061Z,156.67
2019-05-12T16:49:03.346Z,156.70
2019-05-12T16:51:33.283Z,157.45
2019-05-12T16:54:06.936Z,156.90
2019-05-12T16:56:34.496Z,158.87
2019-05-12T16:59:07.248Z,155.55
2019-05-12T17:01:33.464Z,155.18
2019-05-12T17:04:00.668Z,155.70
2019-05-12T17:06:34.936Z,156.35
2019-05-12T17:09:03.213Z,159.20
2019-05-12T17:11:37.452Z,156.60
2019-05-12T17:14:05.090Z,156.35
2019-05-12T17:16:42.104Z,155.85
2019-05-12T17:19:10.628Z,155.25
2019-05-12T17:21:44.096Z,156.00
2019-05-12T17:24:16.876Z,155.72
2019-05-12T17:26:47.189Z,154.55
2019-05-12T17:29:14.430Z,158.30
2019-05-12T17:31:45.137Z,155.90
2019-05-12T17:34:14.256Z,154.38
2019-05-12T17:36:41.720Z,154.07
2019-05-12T17:39:13.856Z,159.43
2019-05-12T17:41:46.179Z,153.85
2019-05-12T17:44:13.679Z,155.43
2019-05-12T17:46:46.537Z,156.90
2019-05-12T17:49:25.352Z,155.32
2019-05-12T17:51:47.915Z,153.18
2019-05-12T17:54:21.529Z,154.57
2019-05-12T17:56:45.526Z,157.67
2019-05-12T17:59:27.605Z,157.37
2019-05-12T18:01:46.511Z,158.27
2019-05-12T18:04:14.067Z,154.25
2019-05-12T18:06:44.137Z,154.00
2019-05-12T18:09:15.835Z,154.23
2019-05-12T18:11:40.971Z,152.60
2019-05-12T18:14:09.468Z,153.50
2019-05-12T18:16:36.585Z,156.60
2019-05-12T18:19:08.908Z,153.10
2019-05-12T18:21:34.730Z,152.80
2019-05-12T18:24:08.887Z,153.97
2019-05-12T18:26:33.828Z,152.20
2019-05-12T18:29:15.909Z,151.82
2019-05-12T18:31:53.419Z,153.25
2019-05-12T18:34:21.185Z,154.50
2019-05-12T18:36:54.814Z,154.50
2019-05-12T18:39:17.279Z,153.87
2019-05-12T18:41:44.601Z,153.65
2019-05-12T18:44:25.271Z,156.45
2019-05-12T18:46:49.460Z,155.18
2019-05-12T18:49:16.816Z,155.00
2019-05-12T18:51:49.166Z,153.12
2019-05-12T18:54:15.612Z,152.45
2019-05-12T18:56:52.488Z,152.27
2019-05-12T18:59:18.778Z,154.65
2019-05-12T19:01:45.967Z,153.23
2019-05-12T19:04:14.340Z,154.63
2019-05-12T19:06:43.801Z,155.03
2019-05-12T19:09:15.183Z,153.50
2019-05-12T19:11:46.441Z,153.60
2019-05-12T19:14:13.502Z,152.68
2019-05-12T19:16:40.448Z,151.53
2019-05-12T19:19:09.711Z,153.97
2019-05-12T19:21:39.789Z,152.32
2019-05-12T19:24:17.523Z,152.38
2019-05-12T19:26:40.478Z,151.60
2019-05-12T19:29:08.569Z,150.72
2019-05-12T19:31:36.680Z,153.02
2019-05-12T19:34:18.765Z,150.62
2019-05-12T19:36:45.063Z,153.85
2019-05-12T19:39:11.492Z,150.93
2019-05-12T19:41:38.666Z,153.07
2019-05-12T19:44:05.755Z,152.20
2019-05-12T19:46:34.196Z,152.17
2019-05-12T19:49:04.438Z,151.10
2019-05-12T19:51:31.972Z,151.53
2019-05-12T19:53:59.222Z,159.65
2019-05-12T19:56:34.525Z,156.57
2019-05-12T19:58:57.308Z,154.50
2019-05-12T20:01:32.356Z,152.80
2019-05-12T20:04:03.568Z,150.42
2019-05-12T20:06:39.065Z,153.35
2019-05-12T20:09:10.923Z,150.40
2019-05-12T20:11:39.573Z,151.27
2019-05-12T20:14:10.041Z,149.60
2019-05-12T20:16:37.036Z,149.38
2019-05-12T20:19:04.490Z,149.82
2019-05-12T20:21:34.019Z,151.00
2019-05-12T20:24:03.696Z,150.38
2019-05-12T20:26:33.274Z,152.68
2019-05-12T20:29:00.234Z,161.92
2019-05-12T20:31:27.672Z,151.05
2019-05-12T20:34:03.433Z,152.57
2019-05-12T20:36:27.735Z,149.93
2019-05-12T20:38:55.013Z,149.50
2019-05-12T20:41:26.570Z,149.80
2019-05-12T20:43:52.733Z,151.60
2019-05-12T20:46:24.285Z,151.32
2019-05-12T20:48:48.908Z,149.90
2019-05-12T20:51:20.054Z,151.55
2019-05-12T20:53:45.068Z,151.85
2019-05-12T20:56:18.503Z,150.85
2019-05-12T20:58:44.296Z,148.87
2019-05-12T21:01:10.295Z,149.65
2019-05-12T21:03:39.861Z,149.47
2019-05-12T21:06:09.004Z,148.07
2019-05-12T21:08:36.104Z,150.50
2019-05-12T21:11:03.171Z,149.87
2019-05-12T21:13:31.895Z,150.85
2019-05-12T21:15:59.413Z,151.00
2019-05-12T21:18:26.714Z,150.30
2019-05-12T21:20:56.716Z,148.28
2019-05-12T21:23:24.270Z,149.05
2019-05-12T21:25:55.963Z,147.28
2019-05-12T21:28:23.858Z,148.55
2019-05-12T21:30:53.142Z,152.82
2019-05-12T21:33:19.921Z,151.95
2019-05-12T21:35:47.205Z,148.60
2019-05-12T21:38:25.165Z,150.70
2019-05-12T21:40:51.182Z,148.10
2019-05-12T21:43:20.495Z,147.50
2019-05-12T21:45:47.591Z,148.05
2019-05-12T21:48:23.686Z,149.87
2019-05-12T21:50:46.138Z,148.15
2019-05-12T21:53:20.597Z,149.18
2019-05-12T21:55:46.897Z,147.30
2019-05-12T21:58:15.259Z,149.25
2019-05-12T22:00:50.548Z,147.62
2019-05-12T22:03:18.903Z,146.72
2019-05-12T22:05:51.354Z,146.37
2019-05-12T22:08:22.199Z,146.32
2019-05-12T22:10:47.489Z,146.53
2019-05-12T22:13:17.972Z,149.35
2019-05-12T22:15:44.691Z,147.70
2019-05-12T22:18:13.079Z,146.72
2019-05-12T22:20:40.153Z,147.40
2019-05-12T22:23:11.952Z,149.23
2019-05-12T22:25:36.192Z,145.80
2019-05-12T22:28:07.859Z,145.75
2019-05-12T22:30:34.866Z,146.45
2019-05-12T22:33:05.938Z,146.35
2019-05-12T22:35:30.840Z,146.05
2019-05-12T22:37:57.880Z,146.35
2019-05-12T22:40:24.997Z,146.72
2019-05-12T22:42:57.060Z,145.12
2019-05-12T22:45:23.985Z,146.35
2019-05-12T22:47:55.322Z,146.43
2019-05-12T22:50:22.075Z,145.85
2019-05-12T22:52:49.561Z,146.47
2019-05-12T22:55:21.308Z,147.72
2019-05-12T22:57:46.123Z,146.22
2019-05-12T23:00:19.220Z,148.60
2019-05-12T23:02:44.849Z,144.37
2019-05-12T23:05:18.521Z,148.43
2019-05-12T23:07:43.959Z,146.53
2019-05-12T23:10:14.055Z,146.80
2019-05-12T23:12:40.148Z,143.82
2019-05-12T23:15:07.777Z,145.50
2019-05-12T23:17:38.961Z,145.07
2019-05-12T23:20:04.990Z,144.13
2019-05-12T23:22:34.998Z,144.28
2019-05-12T23:25:03.825Z,145.17
2019-05-12T23:27:30.174Z,145.25
2019-05-12T23:30:01.429Z,145.05
2019-05-12T23:32:26.221Z,144.17
2019-05-12T23:34:58.403Z,144.57
2019-05-12T23:37:24.400Z,144.82
2019-05-12T23:39:53.731Z,144.37
2019-05-12T23:42:20.975Z,145.32
2019-05-12T23:44:49.121Z,145.38
2019-05-12T23:47:16.354Z,145.07
2019-05-12T23:49:44.397Z,145.47
2019-05-12T23:52:14.032Z,145.75
2019-05-12T23:54:41.038Z,144.32
2019-05-12T23:57:12.934Z,147.95
2019-05-12T23:59:39.159Z,146.53
